EDT,Max TemperatureF,Mean TemperatureF,Min TemperatureF,Max Dew PointF,MeanDew PointF,Min DewpointF,Max Humidity, Mean Humidity, Min Humidity, Max Sea Level PressureIn, Mean Sea Level PressureIn, Min Sea Level PressureIn, Max VisibilityMiles, Mean VisibilityMiles, Min VisibilityMiles, Max Wind SpeedMPH, Mean Wind SpeedMPH, Max Gust SpeedMPH,PrecipitationIn, CloudCover, Events, WindDirDegrees
2012-9-1,90,82,74,72,70,68,87,70,53,30.15,30.07,29.98,10,10,10,17,8,23,T,2,Rain,185
2012-9-2,79,76,72,73,71,69,100,88,76,29.99,29.89,29.81,10,8,2,24,8,29,1.23,6,Rain,156
2012-9-3,80,76,71,73,72,70,100,87,74,29.92,29.87,29.83,10,10,5,15,7,17,0.12,8,Rain,161
2012-9-4,86,78,70,72,71,69,100,81,61,29.92,29.89,29.85,10,10,10,9,3,10,0.00,5,,182
2012-9-5,88,78,67,73,70,64,100,80,59,29.92,29.87,29.81,10,9,0,21,4,31,0.45,2,Fog-Rain-Thunderstorm,221
2012-9-6,84,76,68,70,68,66,100,79,58,30.02,29.95,29.89,10,9,0,8,3,12,0.00,5,,225
2012-9-7,88,78,67,71,69,67,100,78,55,29.97,29.87,29.72,10,9,5,15,8,18,0.00,1,,181
2012-9-8,78,68,58,69,62,53,100,77,53,29.96,29.81,29.68,10,8,1,29,7,45,0.85,6,Rain,290
2012-9-9,76,64,51,55,53,51,100,73,46,30.07,29.98,29.93,10,10,10,15,4,20,0.00,1,,241
2012-9-10,76,64,52,56,51,47,93,65,36,30.21,30.16,30.07,10,10,7,12,5,16,0.00,0,,48
2012-9-11,79,64,49,57,51,48,93,65,36,30.27,30.22,30.19,10,10,10,10,4,15,0.00,0,,136
2012-9-12,82,70,58,62,58,55,90,68,45,30.31,30.25,30.22,10,10,10,10,4,13,0.00,2,,180
2012-9-13,83,73,62,63,60,56,87,65,42,30.32,30.26,30.21,10,10,10,10,2,14,0.00,4,,208
2012-9-14,82,70,58,65,59,55,90,68,45,30.27,30.23,30.19,10,10,10,16,6,21,0.00,3,,292
2012-9-15,75,64,53,53,49,46,86,61,36,30.32,30.24,30.16,10,10,10,20,8,25,0.00,2,,42
2012-9-16,77,67,57,60,53,49,87,64,41,30.15,30.10,30.04,10,10,10,9,4,14,0.00,2,,118
2012-9-17,69,65,60,66,64,60,100,92,84,30.04,29.92,29.76,10,8,4,12,6,16,0.57,7,Rain,149
2012-9-18,66,58,50,65,60,43,100,79,58,30.04,29.77,29.66,10,8,2,18,7,26,0.32,7,Rain,287
2012-9-19,68,55,41,44,40,35,100,67,34,30.19,30.13,30.06,10,10,10,12,3,16,0.00,0,,59
2012-9-20,76,60,43,52,47,41,89,63,36,30.10,30.04,29.97,10,10,10,17,8,22,0.00,1,,198
2012-9-21,76,66,56,60,55,51,86,72,57,30.03,29.95,29.82,10,10,10,24,10,37,0.00,3,,203
2012-9-22,74,59,44,58,48,32,84,58,32,30.16,29.96,29.82,10,10,10,24,12,33,0.00,2,,270
2012-9-23,63,50,36,41,38,34,92,66,40,30.27,30.23,30.17,10,10,9,9,1,12,0.00,1,,339
2012-9-24,66,51,36,42,38,34,92,63,34,30.30,30.22,30.10,10,10,10,10,4,14,0.00,0,,173
2012-9-25,70,60,50,60,51,41,100,81,62,30.15,30.08,29.99,10,9,2,22,10,31,0.98,5,Rain-Thunderstorm,181
2012-9-26,79,71,62,67,61,57,93,78,62,30.15,30.09,30.04,10,10,3,21,9,29,0.19,4,Rain,213
2012-9-27,76,70,63,66,64,62,100,85,69,30.15,30.12,30.09,10,9,1,14,5,18,0.48,6,Rain,225
2012-9-28,70,66,62,66,65,62,100,92,84,30.13,30.08,30.03,10,5,1,10,4,13,0.23,8,Rain,163
2012-9-29,72,61,50,63,58,51,100,77,53,30.06,30.02,29.96,10,7,4,9,5,9,0.00,5,,50
2012-9-30,73,61,49,57,52,49,100,75,49,29.96,29.89,29.83,10,8,2,14,6,16,0.00,0,,223